sensor_id;sensor_type;location;lat;lon;timestamp;temperature;humidity
49132;DHT22;35149;51.196;6.204;2024-03-22T00:01:40;14.90;66.20
49132;DHT22;35149;51.196;6.204;2024-03-22T00:04:06;15.00;66.40
49132;DHT22;35149;51.196;6.204;2024-03-22T00:06:32;15.00;66.50
49132;DHT22;35149;51.196;6.204;2024-03-22T00:08:58;15.00;66.50
49132;DHT22;35149;51.196;6.204;2024-03-22T00:11:24;15.00;67.20
49132;DHT22;35149;51.196;6.204;2024-03-22T00:13:49;15.00;66.60
49132;DHT22;35149;51.196;6.204;2024-03-22T00:16:15;15.00;66.70
49132;DHT22;35149;51.196;6.204;2024-03-22T00:18:41;15.00;66.80
49132;DHT22;35149;51.196;6.204;2024-03-22T00:21:07;15.10;66.90
49132;DHT22;35149;51.196;6.204;2024-03-22T00:23:32;15.00;66.80
49132;DHT22;35149;51.196;6.204;2024-03-22T00:25:59;15.10;66.90
49132;DHT22;35149;51.196;6.204;2024-03-22T00:28:25;15.10;66.90
49132;DHT22;35149;51.196;6.204;2024-03-22T00:30:51;15.10;66.90
49132;DHT22;35149;51.196;6.204;2024-03-22T00:33:17;15.10;67.00
49132;DHT22;35149;51.196;6.204;2024-03-22T00:35:43;15.10;67.00
49132;DHT22;35149;51.196;6.204;2024-03-22T00:38:09;15.10;67.00
49132;DHT22;35149;51.196;6.204;2024-03-22T00:40:34;15.10;67.00
49132;DHT22;35149;51.196;6.204;2024-03-22T00:43:00;15.10;67.10
49132;DHT22;35149;51.196;6.204;2024-03-22T00:45:26;15.10;67.10
49132;DHT22;35149;51.196;6.204;2024-03-22T00:47:52;15.10;67.20
49132;DHT22;35149;51.196;6.204;2024-03-22T00:50:18;15.10;67.20
49132;DHT22;35149;51.196;6.204;2024-03-22T00:52:44;15.10;67.20
49132;DHT22;35149;51.196;6.204;2024-03-22T00:55:10;15.10;67.30
49132;DHT22;35149;51.196;6.204;2024-03-22T00:57:36;15.00;67.40
49132;DHT22;35149;51.196;6.204;2024-03-22T01:00:02;15.00;67.50
49132;DHT22;35149;51.196;6.204;2024-03-22T01:02:28;15.00;67.60
49132;DHT22;35149;51.196;6.204;2024-03-22T01:04:54;15.00;67.70
49132;DHT22;35149;51.196;6.204;2024-03-22T01:07:19;15.00;67.80
49132;DHT22;35149;51.196;6.204;2024-03-22T01:09:45;15.00;67.90
49132;DHT22;35149;51.196;6.204;2024-03-22T01:12:11;15.00;68.00
49132;DHT22;35149;51.196;6.204;2024-03-22T01:14:37;15.00;68.10
49132;DHT22;35149;51.196;6.204;2024-03-22T01:17:03;15.00;68.10
49132;DHT22;35149;51.196;6.204;2024-03-22T01:19:29;15.00;68.20
49132;DHT22;35149;51.196;6.204;2024-03-22T01:21:55;15.00;68.30
49132;DHT22;35149;51.196;6.204;2024-03-22T01:24:21;15.00;68.40
49132;DHT22;35149;51.196;6.204;2024-03-22T01:26:47;15.00;68.40
49132;DHT22;35149;51.196;6.204;2024-03-22T01:29:13;15.00;68.40
49132;DHT22;35149;51.196;6.204;2024-03-22T01:31:39;15.00;68.60
49132;DHT22;35149;51.196;6.204;2024-03-22T01:34:05;15.00;68.50
49132;DHT22;35149;51.196;6.204;2024-03-22T01:36:31;15.00;68.60
49132;DHT22;35149;51.196;6.204;2024-03-22T01:38:57;15.00;68.60
49132;DHT22;35149;51.196;6.204;2024-03-22T01:41:23;15.00;68.70
49132;DHT22;35149;51.196;6.204;2024-03-22T01:43:49;15.00;68.70
49132;DHT22;35149;51.196;6.204;2024-03-22T01:46:15;15.00;68.70
49132;DHT22;35149;51.196;6.204;2024-03-22T01:48:41;15.10;68.80
49132;DHT22;35149;51.196;6.204;2024-03-22T01:51:07;15.00;68.80
49132;DHT22;35149;51.196;6.204;2024-03-22T01:53:34;15.00;69.00
49132;DHT22;35149;51.196;6.204;2024-03-22T01:56:01;15.10;69.10
49132;DHT22;35149;51.196;6.204;2024-03-22T01:58:27;15.00;69.10
49132;DHT22;35149;51.196;6.204;2024-03-22T02:00:54;15.10;69.20
49132;DHT22;35149;51.196;6.204;2024-03-22T02:03:21;15.10;69.20
49132;DHT22;35149;51.196;6.204;2024-03-22T02:05:46;15.10;69.20
49132;DHT22;35149;51.196;6.204;2024-03-22T02:08:12;15.10;69.20
49132;DHT22;35149;51.196;6.204;2024-03-22T02:10:38;15.10;69.20
49132;DHT22;35149;51.196;6.204;2024-03-22T02:13:04;15.20;69.30
49132;DHT22;35149;51.196;6.204;2024-03-22T02:15:30;15.10;69.20
49132;DHT22;35149;51.196;6.204;2024-03-22T02:17:56;15.20;69.20
49132;DHT22;35149;51.196;6.204;2024-03-22T02:20:22;15.20;69.20
49132;DHT22;35149;51.196;6.204;2024-03-22T02:22:48;15.20;69.20
49132;DHT22;35149;51.196;6.204;2024-03-22T02:25:14;15.20;69.20
49132;DHT22;35149;51.196;6.204;2024-03-22T02:27:41;15.20;69.20
49132;DHT22;35149;51.196;6.204;2024-03-22T02:30:07;15.20;69.20
49132;DHT22;35149;51.196;6.204;2024-03-22T02:32:33;15.20;69.20
49132;DHT22;35149;51.196;6.204;2024-03-22T02:34:59;15.20;69.20
49132;DHT22;35149;51.196;6.204;2024-03-22T02:37:25;15.20;69.20
49132;DHT22;35149;51.196;6.204;2024-03-22T02:39:51;15.20;69.20
49132;DHT22;35149;51.196;6.204;2024-03-22T02:42:16;15.20;69.30
49132;DHT22;35149;51.196;6.204;2024-03-22T02:44:42;15.20;69.30
49132;DHT22;35149;51.196;6.204;2024-03-22T02:47:09;15.20;69.30
49132;DHT22;35149;51.196;6.204;2024-03-22T02:49:37;15.20;69.30
49132;DHT22;35149;51.196;6.204;2024-03-22T02:52:03;15.20;69.20
49132;DHT22;35149;51.196;6.204;2024-03-22T02:54:29;15.20;69.30
49132;DHT22;35149;51.196;6.204;2024-03-22T02:56:54;15.20;69.30
49132;DHT22;35149;51.196;6.204;2024-03-22T02:59:20;15.30;69.30
49132;DHT22;35149;51.196;6.204;2024-03-22T03:01:46;15.20;69.30
49132;DHT22;35149;51.196;6.204;2024-03-22T03:04:12;15.30;69.30
49132;DHT22;35149;51.196;6.204;2024-03-22T03:06:38;15.20;69.30
49132;DHT22;35149;51.196;6.204;2024-03-22T03:09:04;15.20;69.20
49132;DHT22;35149;51.196;6.204;2024-03-22T03:11:37;15.20;69.20
49132;DHT22;35149;51.196;6.204;2024-03-22T03:14:03;15.30;69.20
49132;DHT22;35149;51.196;6.204;2024-03-22T03:16:29;15.20;68.60
49132;DHT22;35149;51.196;6.204;2024-03-22T03:18:55;15.20;68.70
49132;DHT22;35149;51.196;6.204;2024-03-22T03:21:21;15.20;68.80
49132;DHT22;35149;51.196;6.204;2024-03-22T03:23:47;15.20;68.80
49132;DHT22;35149;51.196;6.204;2024-03-22T03:26:13;15.20;68.70
49132;DHT22;35149;51.196;6.204;2024-03-22T03:28:39;15.10;68.70
49132;DHT22;35149;51.196;6.204;2024-03-22T03:31:04;15.10;68.80
49132;DHT22;35149;51.196;6.204;2024-03-22T03:33:30;15.10;68.90
49132;DHT22;35149;51.196;6.204;2024-03-22T03:35:56;15.10;68.90
49132;DHT22;35149;51.196;6.204;2024-03-22T03:38:22;15.00;68.90
49132;DHT22;35149;51.196;6.204;2024-03-22T03:40:48;15.00;68.90
49132;DHT22;35149;51.196;6.204;2024-03-22T03:43:14;15.00;68.90
49132;DHT22;35149;51.196;6.204;2024-03-22T03:45:40;15.00;69.00
49132;DHT22;35149;51.196;6.204;2024-03-22T03:48:06;15.00;69.00
49132;DHT22;35149;51.196;6.204;2024-03-22T03:50:32;14.90;69.10
49132;DHT22;35149;51.196;6.204;2024-03-22T03:52:57;14.90;69.20
49132;DHT22;35149;51.196;6.204;2024-03-22T03:55:23;14.90;69.20
49132;DHT22;35149;51.196;6.204;2024-03-22T03:57:52;14.80;69.30
49132;DHT22;35149;51.196;6.204;2024-03-22T04:00:19;14.80;69.50
49132;DHT22;35149;51.196;6.204;2024-03-22T04:02:46;14.80;69.50
49132;DHT22;35149;51.196;6.204;2024-03-22T04:05:14;14.80;69.50
49132;DHT22;35149;51.196;6.204;2024-03-22T04:07:39;14.80;69.50
49132;DHT22;35149;51.196;6.204;2024-03-22T04:10:08;14.90;69.60
49132;DHT22;35149;51.196;6.204;2024-03-22T04:12:34;14.80;69.60
49132;DHT22;35149;51.196;6.204;2024-03-22T04:15:00;14.80;69.60
49132;DHT22;35149;51.196;6.204;2024-03-22T04:17:26;14.80;69.60
49132;DHT22;35149;51.196;6.204;2024-03-22T04:19:52;14.80;69.60
49132;DHT22;35149;51.196;6.204;2024-03-22T04:22:18;14.80;69.50
49132;DHT22;35149;51.196;6.204;2024-03-22T04:24:44;14.90;69.60
49132;DHT22;35149;51.196;6.204;2024-03-22T04:27:10;14.90;69.50
49132;DHT22;35149;51.196;6.204;2024-03-22T04:29:36;14.90;69.40
49132;DHT22;35149;51.196;6.204;2024-03-22T04:32:02;14.90;69.40
49132;DHT22;35149;51.196;6.204;2024-03-22T04:34:27;14.90;69.20
49132;DHT22;35149;51.196;6.204;2024-03-22T04:36:53;14.90;69.20
49132;DHT22;35149;51.196;6.204;2024-03-22T04:39:20;15.00;69.20
49132;DHT22;35149;51.196;6.204;2024-03-22T04:41:45;15.00;69.20
49132;DHT22;35149;51.196;6.204;2024-03-22T04:44:11;14.90;69.00
49132;DHT22;35149;51.196;6.204;2024-03-22T04:46:37;14.90;69.00
49132;DHT22;35149;51.196;6.204;2024-03-22T04:49:03;14.90;68.90
49132;DHT22;35149;51.196;6.204;2024-03-22T04:51:29;14.90;68.90
49132;DHT22;35149;51.196;6.204;2024-03-22T04:53:54;15.00;68.90
49132;DHT22;35149;51.196;6.204;2024-03-22T04:56:20;15.00;68.90
49132;DHT22;35149;51.196;6.204;2024-03-22T04:58:46;15.00;68.80
49132;DHT22;35149;51.196;6.204;2024-03-22T05:01:13;15.00;68.80
49132;DHT22;35149;51.196;6.204;2024-03-22T05:03:40;15.00;68.70
49132;DHT22;35149;51.196;6.204;2024-03-22T05:06:07;15.00;68.70
49132;DHT22;35149;51.196;6.204;2024-03-22T05:08:33;15.00;68.60
49132;DHT22;35149;51.196;6.204;2024-03-22T05:10:58;15.00;68.70
49132;DHT22;35149;51.196;6.204;2024-03-22T05:13:24;15.00;68.60
49132;DHT22;35149;51.196;6.204;2024-03-22T05:15:50;15.10;68.70
49132;DHT22;35149;51.196;6.204;2024-03-22T05:18:16;15.00;68.60
49132;DHT22;35149;51.196;6.204;2024-03-22T05:20:42;15.00;68.60
49132;DHT22;35149;51.196;6.204;2024-03-22T05:23:08;15.10;68.60
49132;DHT22;35149;51.196;6.204;2024-03-22T05:25:33;15.00;68.50
49132;DHT22;35149;51.196;6.204;2024-03-22T05:27:59;15.00;68.40
49132;DHT22;35149;51.196;6.204;2024-03-22T05:30:25;15.00;68.40
49132;DHT22;35149;51.196;6.204;2024-03-22T05:32:51;15.00;68.50
49132;DHT22;35149;51.196;6.204;2024-03-22T05:35:17;15.00;68.40
49132;DHT22;35149;51.196;6.204;2024-03-22T05:37:44;15.00;68.40
49132;DHT22;35149;51.196;6.204;2024-03-22T05:40:10;15.00;68.40
49132;DHT22;35149;51.196;6.204;2024-03-22T05:42:36;15.00;68.40
49132;DHT22;35149;51.196;6.204;2024-03-22T05:45:02;15.00;68.40
49132;DHT22;35149;51.196;6.204;2024-03-22T05:47:28;15.00;69.10
49132;DHT22;35149;51.196;6.204;2024-03-22T05:49:57;15.00;68.40
49132;DHT22;35149;51.196;6.204;2024-03-22T05:52:23;15.00;68.40
49132;DHT22;35149;51.196;6.204;2024-03-22T05:54:49;15.00;68.40
49132;DHT22;35149;51.196;6.204;2024-03-22T05:57:14;15.10;68.50
49132;DHT22;35149;51.196;6.204;2024-03-22T05:59:40;15.00;68.40
49132;DHT22;35149;51.196;6.204;2024-03-22T06:02:07;15.00;68.40
49132;DHT22;35149;51.196;6.204;2024-03-22T06:04:33;15.00;68.50
49132;DHT22;35149;51.196;6.204;2024-03-22T06:06:59;15.00;68.40
49132;DHT22;35149;51.196;6.204;2024-03-22T06:09:29;15.00;68.50
49132;DHT22;35149;51.196;6.204;2024-03-22T06:12:15;15.00;68.60
49132;DHT22;35149;51.196;6.204;2024-03-22T06:14:42;15.00;69.20
49132;DHT22;35149;51.196;6.204;2024-03-22T06:17:10;15.00;68.50
49132;DHT22;35149;51.196;6.204;2024-03-22T06:19:37;15.10;68.50
49132;DHT22;35149;51.196;6.204;2024-03-22T06:22:03;15.10;68.50
49132;DHT22;35149;51.196;6.204;2024-03-22T06:24:29;15.10;68.40
49132;DHT22;35149;51.196;6.204;2024-03-22T06:26:55;15.20;68.50
49132;DHT22;35149;51.196;6.204;2024-03-22T06:29:21;15.20;68.40
49132;DHT22;35149;51.196;6.204;2024-03-22T06:31:47;15.20;68.40
49132;DHT22;35149;51.196;6.204;2024-03-22T06:34:13;15.20;69.00
49132;DHT22;35149;51.196;6.204;2024-03-22T06:36:39;15.20;68.30
49132;DHT22;35149;51.196;6.204;2024-03-22T06:39:05;15.20;68.30
49132;DHT22;35149;51.196;6.204;2024-03-22T06:41:33;15.20;68.20
49132;DHT22;35149;51.196;6.204;2024-03-22T06:43:59;15.30;68.40
49132;DHT22;35149;51.196;6.204;2024-03-22T06:46:25;15.20;68.30
49132;DHT22;35149;51.196;6.204;2024-03-22T06:48:52;15.20;68.40
49132;DHT22;35149;51.196;6.204;2024-03-22T06:51:18;15.20;68.50
49132;DHT22;35149;51.196;6.204;2024-03-22T06:53:43;15.20;68.50
49132;DHT22;35149;51.196;6.204;2024-03-22T06:56:11;15.20;68.60
49132;DHT22;35149;51.196;6.204;2024-03-22T06:58:38;15.20;68.70
49132;DHT22;35149;51.196;6.204;2024-03-22T07:01:04;15.30;68.80
49132;DHT22;35149;51.196;6.204;2024-03-22T07:03:30;15.30;68.80
49132;DHT22;35149;51.196;6.204;2024-03-22T07:05:56;15.30;68.90
49132;DHT22;35149;51.196;6.204;2024-03-22T07:08:24;15.40;68.90
49132;DHT22;35149;51.196;6.204;2024-03-22T07:10:51;15.40;68.90
49132;DHT22;35149;51.196;6.204;2024-03-22T07:13:18;15.50;68.90
49132;DHT22;35149;51.196;6.204;2024-03-22T07:15:47;15.50;68.80
49132;DHT22;35149;51.196;6.204;2024-03-22T07:18:16;15.60;68.80
49132;DHT22;35149;51.196;6.204;2024-03-22T07:20:42;15.60;68.70
49132;DHT22;35149;51.196;6.204;2024-03-22T07:23:08;15.70;68.60
49132;DHT22;35149;51.196;6.204;2024-03-22T07:25:34;15.70;68.40
49132;DHT22;35149;51.196;6.204;2024-03-22T07:28:00;15.80;68.60
49132;DHT22;35149;51.196;6.204;2024-03-22T07:30:26;15.80;68.30
49132;DHT22;35149;51.196;6.204;2024-03-22T07:32:52;15.90;68.20
49132;DHT22;35149;51.196;6.204;2024-03-22T07:35:18;15.90;68.00
49132;DHT22;35149;51.196;6.204;2024-03-22T07:37:44;15.90;67.70
49132;DHT22;35149;51.196;6.204;2024-03-22T07:40:10;16.00;67.70
49132;DHT22;35149;51.196;6.204;2024-03-22T07:42:36;16.00;67.60
49132;DHT22;35149;51.196;6.204;2024-03-22T07:45:02;16.00;67.60
49132;DHT22;35149;51.196;6.204;2024-03-22T07:47:28;16.00;67.50
49132;DHT22;35149;51.196;6.204;2024-03-22T07:49:54;16.10;67.60
49132;DHT22;35149;51.196;6.204;2024-03-22T07:52:20;16.10;67.40
49132;DHT22;35149;51.196;6.204;2024-03-22T07:54:46;16.10;67.20
49132;DHT22;35149;51.196;6.204;2024-03-22T07:57:12;16.20;66.90
49132;DHT22;35149;51.196;6.204;2024-03-22T07:59:38;16.20;67.00
49132;DHT22;35149;51.196;6.204;2024-03-22T08:02:04;16.20;66.90
49132;DHT22;35149;51.196;6.204;2024-03-22T08:04:29;16.20;66.80
49132;DHT22;35149;51.196;6.204;2024-03-22T08:06:55;16.20;66.60
49132;DHT22;35149;51.196;6.204;2024-03-22T08:09:21;16.30;66.60
49132;DHT22;35149;51.196;6.204;2024-03-22T08:11:48;16.30;66.60
49132;DHT22;35149;51.196;6.204;2024-03-22T08:14:13;16.30;66.60
49132;DHT22;35149;51.196;6.204;2024-03-22T08:16:39;16.30;67.00
49132;DHT22;35149;51.196;6.204;2024-03-22T08:19:05;16.40;66.30
49132;DHT22;35149;51.196;6.204;2024-03-22T08:21:31;16.40;66.20
49132;DHT22;35149;51.196;6.204;2024-03-22T08:23:57;16.40;66.10
49132;DHT22;35149;51.196;6.204;2024-03-22T08:26:23;16.40;66.20
49132;DHT22;35149;51.196;6.204;2024-03-22T08:28:48;16.40;66.30
49132;DHT22;35149;51.196;6.204;2024-03-22T08:31:14;16.40;66.10
49132;DHT22;35149;51.196;6.204;2024-03-22T08:33:41;16.40;66.00
49132;DHT22;35149;51.196;6.204;2024-03-22T08:36:06;16.40;66.10
49132;DHT22;35149;51.196;6.204;2024-03-22T08:38:32;16.40;66.50
49132;DHT22;35149;51.196;6.204;2024-03-22T08:40:59;16.50;65.50
49132;DHT22;35149;51.196;6.204;2024-03-22T08:43:25;16.50;65.60
49132;DHT22;35149;51.196;6.204;2024-03-22T08:45:53;16.50;65.60
49132;DHT22;35149;51.196;6.204;2024-03-22T08:48:19;16.50;65.60
49132;DHT22;35149;51.196;6.204;2024-03-22T08:50:45;16.50;65.30
49132;DHT22;35149;51.196;6.204;2024-03-22T08:53:10;16.70;65.50
49132;DHT22;35149;51.196;6.204;2024-03-22T08:55:36;16.60;65.30
49132;DHT22;35149;51.196;6.204;2024-03-22T08:58:03;16.60;65.20
49132;DHT22;35149;51.196;6.204;2024-03-22T09:00:29;16.70;65.00
49132;DHT22;35149;51.196;6.204;2024-03-22T09:02:55;16.70;64.90
49132;DHT22;35149;51.196;6.204;2024-03-22T09:05:21;16.70;64.80
49132;DHT22;35149;51.196;6.204;2024-03-22T09:07:47;16.80;64.70
49132;DHT22;35149;51.196;6.204;2024-03-22T09:10:14;16.90;64.50
49132;DHT22;35149;51.196;6.204;2024-03-22T09:12:40;17.00;64.20
49132;DHT22;35149;51.196;6.204;2024-03-22T09:15:07;17.00;63.50
49132;DHT22;35149;51.196;6.204;2024-03-22T09:17:33;17.10;63.70
49132;DHT22;35149;51.196;6.204;2024-03-22T09:19:59;17.20;63.50
49132;DHT22;35149;51.196;6.204;2024-03-22T09:22:25;17.30;63.00
49132;DHT22;35149;51.196;6.204;2024-03-22T09:24:50;17.40;62.60
49132;DHT22;35149;51.196;6.204;2024-03-22T09:27:16;17.50;62.00
49132;DHT22;35149;51.196;6.204;2024-03-22T09:29:42;17.50;61.70
49132;DHT22;35149;51.196;6.204;2024-03-22T09:32:09;17.60;61.50
49132;DHT22;35149;51.196;6.204;2024-03-22T09:34:35;17.60;60.70
49132;DHT22;35149;51.196;6.204;2024-03-22T09:37:01;17.70;60.70
49132;DHT22;35149;51.196;6.204;2024-03-22T09:39:27;17.70;60.40
49132;DHT22;35149;51.196;6.204;2024-03-22T09:41:57;17.70;60.10
49132;DHT22;35149;51.196;6.204;2024-03-22T09:44:23;17.70;59.70
49132;DHT22;35149;51.196;6.204;2024-03-22T09:46:50;17.80;59.70
49132;DHT22;35149;51.196;6.204;2024-03-22T09:49:17;17.70;59.80
49132;DHT22;35149;51.196;6.204;2024-03-22T09:51:44;17.70;60.10
49132;DHT22;35149;51.196;6.204;2024-03-22T09:54:10;17.80;60.10
49132;DHT22;35149;51.196;6.204;2024-03-22T09:56:39;17.80;59.90
49132;DHT22;35149;51.196;6.204;2024-03-22T09:59:09;17.80;60.00
49132;DHT22;35149;51.196;6.204;2024-03-22T10:01:36;17.80;59.50
49132;DHT22;35149;51.196;6.204;2024-03-22T10:04:02;17.80;59.90
49132;DHT22;35149;51.196;6.204;2024-03-22T10:06:31;17.80;59.60
49132;DHT22;35149;51.196;6.204;2024-03-22T10:08:58;17.90;59.60
49132;DHT22;35149;51.196;6.204;2024-03-22T10:11:27;17.90;59.70
49132;DHT22;35149;51.196;6.204;2024-03-22T10:13:52;17.90;59.70
49132;DHT22;35149;51.196;6.204;2024-03-22T10:16:21;17.90;59.50
49132;DHT22;35149;51.196;6.204;2024-03-22T10:18:47;17.90;59.30
49132;DHT22;35149;51.196;6.204;2024-03-22T10:21:17;17.90;59.40
49132;DHT22;35149;51.196;6.204;2024-03-22T10:23:44;17.90;59.00
49132;DHT22;35149;51.196;6.204;2024-03-22T10:26:10;17.90;59.20
49132;DHT22;35149;51.196;6.204;2024-03-22T10:28:36;18.00;59.40
49132;DHT22;35149;51.196;6.204;2024-03-22T10:31:11;17.90;59.30
49132;DHT22;35149;51.196;6.204;2024-03-22T10:33:38;17.90;59.50
49132;DHT22;35149;51.196;6.204;2024-03-22T10:36:04;17.90;59.40
49132;DHT22;35149;51.196;6.204;2024-03-22T10:38:32;18.00;59.70
49132;DHT22;35149;51.196;6.204;2024-03-22T10:41:00;18.00;59.40
49132;DHT22;35149;51.196;6.204;2024-03-22T10:43:26;18.00;59.70
49132;DHT22;35149;51.196;6.204;2024-03-22T10:45:57;18.10;59.60
49132;DHT22;35149;51.196;6.204;2024-03-22T10:48:29;18.20;59.20
49132;DHT22;35149;51.196;6.204;2024-03-22T10:50:55;18.30;59.20
49132;DHT22;35149;51.196;6.204;2024-03-22T10:53:25;18.30;59.20
49132;DHT22;35149;51.196;6.204;2024-03-22T10:55:53;18.40;59.20
49132;DHT22;35149;51.196;6.204;2024-03-22T10:58:22;18.50;59.10
49132;DHT22;35149;51.196;6.204;2024-03-22T11:00:52;18.60;59.20
49132;DHT22;35149;51.196;6.204;2024-03-22T11:03:22;18.60;58.80
49132;DHT22;35149;51.196;6.204;2024-03-22T11:05:50;18.70;58.50
49132;DHT22;35149;51.196;6.204;2024-03-22T11:08:27;18.70;58.00
49132;DHT22;35149;51.196;6.204;2024-03-22T11:10:54;18.70;57.80
49132;DHT22;35149;51.196;6.204;2024-03-22T11:13:21;18.80;58.20
49132;DHT22;35149;51.196;6.204;2024-03-22T11:15:50;18.70;58.10
49132;DHT22;35149;51.196;6.204;2024-03-22T11:18:17;18.80;58.10
49132;DHT22;35149;51.196;6.204;2024-03-22T11:20:43;18.80;58.30
49132;DHT22;35149;51.196;6.204;2024-03-22T11:23:12;18.70;58.20
49132;DHT22;35149;51.196;6.204;2024-03-22T11:25:38;18.70;58.40
49132;DHT22;35149;51.196;6.204;2024-03-22T11:28:05;18.80;58.30
49132;DHT22;35149;51.196;6.204;2024-03-22T11:30:32;18.80;58.00
49132;DHT22;35149;51.196;6.204;2024-03-22T11:33:01;18.80;57.70
49132;DHT22;35149;51.196;6.204;2024-03-22T11:35:27;18.80;57.60
49132;DHT22;35149;51.196;6.204;2024-03-22T11:37:53;18.70;57.80
49132;DHT22;35149;51.196;6.204;2024-03-22T11:40:19;18.80;57.30
49132;DHT22;35149;51.196;6.204;2024-03-22T11:42:48;18.70;57.50
49132;DHT22;35149;51.196;6.204;2024-03-22T11:45:16;18.60;57.00
49132;DHT22;35149;51.196;6.204;2024-03-22T11:47:44;18.60;57.10
49132;DHT22;35149;51.196;6.204;2024-03-22T11:50:12;18.50;57.30
49132;DHT22;35149;51.196;6.204;2024-03-22T11:52:40;18.50;57.50
49132;DHT22;35149;51.196;6.204;2024-03-22T11:55:06;18.40;57.70
49132;DHT22;35149;51.196;6.204;2024-03-22T11:57:32;18.40;58.10
49132;DHT22;35149;51.196;6.204;2024-03-22T11:59:59;18.40;58.40
49132;DHT22;35149;51.196;6.204;2024-03-22T12:02:25;18.40;58.20
49132;DHT22;35149;51.196;6.204;2024-03-22T12:04:51;18.40;58.30
49132;DHT22;35149;51.196;6.204;2024-03-22T12:07:18;18.40;58.20
49132;DHT22;35149;51.196;6.204;2024-03-22T12:09:44;18.40;58.10
49132;DHT22;35149;51.196;6.204;2024-03-22T12:12:12;18.40;58.00
49132;DHT22;35149;51.196;6.204;2024-03-22T12:14:39;18.40;57.90
49132;DHT22;35149;51.196;6.204;2024-03-22T12:17:06;18.30;57.80
49132;DHT22;35149;51.196;6.204;2024-03-22T12:19:32;18.20;57.50
49132;DHT22;35149;51.196;6.204;2024-03-22T12:21:58;18.20;57.80
49132;DHT22;35149;51.196;6.204;2024-03-22T12:24:25;18.20;57.90
49132;DHT22;35149;51.196;6.204;2024-03-22T12:26:51;18.10;58.10
49132;DHT22;35149;51.196;6.204;2024-03-22T12:29:17;18.10;58.80
49132;DHT22;35149;51.196;6.204;2024-03-22T12:31:44;18.00;58.40
49132;DHT22;35149;51.196;6.204;2024-03-22T12:34:12;18.10;58.50
49132;DHT22;35149;51.196;6.204;2024-03-22T12:36:37;18.00;58.70
49132;DHT22;35149;51.196;6.204;2024-03-22T12:39:03;18.00;58.50
49132;DHT22;35149;51.196;6.204;2024-03-22T12:41:30;18.00;58.50
49132;DHT22;35149;51.196;6.204;2024-03-22T12:43:56;18.00;58.70
49132;DHT22;35149;51.196;6.204;2024-03-22T12:46:22;18.00;58.70
49132;DHT22;35149;51.196;6.204;2024-03-22T12:48:48;18.00;58.30
49132;DHT22;35149;51.196;6.204;2024-03-22T12:51:14;18.00;58.50
49132;DHT22;35149;51.196;6.204;2024-03-22T12:53:40;18.00;58.50
49132;DHT22;35149;51.196;6.204;2024-03-22T12:56:06;18.00;58.50
49132;DHT22;35149;51.196;6.204;2024-03-22T12:58:32;17.90;58.40
49132;DHT22;35149;51.196;6.204;2024-03-22T13:00:58;17.90;58.30
49132;DHT22;35149;51.196;6.204;2024-03-22T13:03:27;17.80;58.90
49132;DHT22;35149;51.196;6.204;2024-03-22T13:05:53;17.80;58.20
49132;DHT22;35149;51.196;6.204;2024-03-22T13:08:19;17.80;58.50
49132;DHT22;35149;51.196;6.204;2024-03-22T13:10:46;17.70;58.40
49132;DHT22;35149;51.196;6.204;2024-03-22T13:13:12;17.70;58.60
49132;DHT22;35149;51.196;6.204;2024-03-22T13:15:41;17.60;58.60
49132;DHT22;35149;51.196;6.204;2024-03-22T13:18:08;17.60;58.80
49132;DHT22;35149;51.196;6.204;2024-03-22T13:20:37;17.60;58.90
49132;DHT22;35149;51.196;6.204;2024-03-22T13:23:03;17.50;58.80
49132;DHT22;35149;51.196;6.204;2024-03-22T13:25:30;17.50;58.70
49132;DHT22;35149;51.196;6.204;2024-03-22T13:27:56;17.50;58.90
49132;DHT22;35149;51.196;6.204;2024-03-22T13:30:22;17.50;59.10
49132;DHT22;35149;51.196;6.204;2024-03-22T13:32:48;17.40;59.10
49132;DHT22;35149;51.196;6.204;2024-03-22T13:35:14;17.40;59.00
49132;DHT22;35149;51.196;6.204;2024-03-22T13:37:43;17.30;59.30
49132;DHT22;35149;51.196;6.204;2024-03-22T13:40:09;17.30;59.50
49132;DHT22;35149;51.196;6.204;2024-03-22T13:42:35;17.30;59.20
49132;DHT22;35149;51.196;6.204;2024-03-22T13:45:01;17.20;59.40
49132;DHT22;35149;51.196;6.204;2024-03-22T13:47:27;17.20;59.90
49132;DHT22;35149;51.196;6.204;2024-03-22T13:49:54;17.10;59.90
49132;DHT22;35149;51.196;6.204;2024-03-22T13:52:20;17.10;59.90
49132;DHT22;35149;51.196;6.204;2024-03-22T13:54:49;17.10;59.90
49132;DHT22;35149;51.196;6.204;2024-03-22T13:57:18;17.00;59.80
49132;DHT22;35149;51.196;6.204;2024-03-22T13:59:44;17.00;59.90
49132;DHT22;35149;51.196;6.204;2024-03-22T14:02:10;16.90;60.20
49132;DHT22;35149;51.196;6.204;2024-03-22T14:04:36;16.90;60.40
49132;DHT22;35149;51.196;6.204;2024-03-22T14:07:02;16.80;60.40
49132;DHT22;35149;51.196;6.204;2024-03-22T14:09:32;16.80;60.60
49132;DHT22;35149;51.196;6.204;2024-03-22T14:11:58;16.70;60.50
49132;DHT22;35149;51.196;6.204;2024-03-22T14:14:25;16.70;60.70
49132;DHT22;35149;51.196;6.204;2024-03-22T14:16:52;16.70;60.80
49132;DHT22;35149;51.196;6.204;2024-03-22T14:19:18;16.60;60.80
49132;DHT22;35149;51.196;6.204;2024-03-22T14:21:45;16.50;61.00
49132;DHT22;35149;51.196;6.204;2024-03-22T14:24:14;16.50;61.30
49132;DHT22;35149;51.196;6.204;2024-03-22T14:26:42;16.40;61.30
49132;DHT22;35149;51.196;6.204;2024-03-22T14:29:17;16.40;61.60
49132;DHT22;35149;51.196;6.204;2024-03-22T14:31:44;16.40;61.80
49132;DHT22;35149;51.196;6.204;2024-03-22T14:34:11;16.40;61.80
49132;DHT22;35149;51.196;6.204;2024-03-22T14:36:37;16.30;61.90
49132;DHT22;35149;51.196;6.204;2024-03-22T14:39:03;16.30;62.10
49132;DHT22;35149;51.196;6.204;2024-03-22T14:41:32;16.20;62.10
49132;DHT22;35149;51.196;6.204;2024-03-22T14:43:57;16.20;62.20
49132;DHT22;35149;51.196;6.204;2024-03-22T14:46:23;16.20;62.50
49132;DHT22;35149;51.196;6.204;2024-03-22T14:48:54;16.10;62.60
49132;DHT22;35149;51.196;6.204;2024-03-22T14:51:20;16.10;62.90
49132;DHT22;35149;51.196;6.204;2024-03-22T14:53:46;16.00;63.10
49132;DHT22;35149;51.196;6.204;2024-03-22T14:56:12;16.00;63.30
49132;DHT22;35149;51.196;6.204;2024-03-22T14:58:39;16.00;63.60
49132;DHT22;35149;51.196;6.204;2024-03-22T15:01:06;15.90;64.10
49132;DHT22;35149;51.196;6.204;2024-03-22T15:03:32;15.80;64.50
49132;DHT22;35149;51.196;6.204;2024-03-22T15:05:59;15.80;64.70
49132;DHT22;35149;51.196;6.204;2024-03-22T15:08:26;15.70;65.00
49132;DHT22;35149;51.196;6.204;2024-03-22T15:10:52;15.70;65.20
49132;DHT22;35149;51.196;6.204;2024-03-22T15:13:18;15.60;65.50
49132;DHT22;35149;51.196;6.204;2024-03-22T15:15:55;15.50;65.70
49132;DHT22;35149;51.196;6.204;2024-03-22T15:18:21;15.50;66.90
49132;DHT22;35149;51.196;6.204;2024-03-22T15:20:47;15.30;66.50
49132;DHT22;35149;51.196;6.204;2024-03-22T15:23:14;15.40;66.80
49132;DHT22;35149;51.196;6.204;2024-03-22T15:25:41;15.20;67.00